createdAt,value
2023-02-14T00:01:21.132Z,-0.24
2023-02-14T00:03:49.589Z,-0.18
2023-02-14T00:06:17.735Z,-0.08
2023-02-14T00:08:45.902Z,-0.01
2023-02-14T00:11:14.045Z,0.03
2023-02-14T00:14:02.052Z,0.04
2023-02-14T00:16:30.281Z,0.06
2023-02-14T00:19:04.726Z,0.06
2023-02-14T00:21:36.123Z,0.07
2023-02-14T00:24:05.416Z,0.05
2023-02-14T00:26:33.469Z,0.09
2023-02-14T00:29:01.448Z,0.13
2023-02-14T00:31:29.537Z,0.16
2023-02-14T00:33:57.669Z,0.23
2023-02-14T00:36:25.781Z,0.24
2023-02-14T00:38:53.661Z,0.18
2023-02-14T00:41:22.048Z,0.10
2023-02-14T00:43:52.881Z,0.07
2023-02-14T00:46:21.499Z,0.12
2023-02-14T00:48:50.057Z,0.04
2023-02-14T00:51:18.654Z,0.00
2023-02-14T00:53:47.266Z,-0.04
2023-02-14T00:56:15.917Z,-0.03
2023-02-14T00:58:44.954Z,0.04
2023-02-14T01:01:13.482Z,0.14
2023-02-14T01:03:41.511Z,0.16
2023-02-14T01:06:09.542Z,0.19
2023-02-14T01:08:37.412Z,0.23
2023-02-14T01:11:12.984Z,0.27
2023-02-14T01:13:41.417Z,0.28
2023-02-14T01:16:11.334Z,0.22
2023-02-14T01:18:39.504Z,0.18
2023-02-14T01:21:13.385Z,0.25
2023-02-14T01:23:41.740Z,0.30
2023-02-14T01:26:10.333Z,0.31
2023-02-14T01:28:40.515Z,0.26
2023-02-14T01:31:14.669Z,0.24
2023-02-14T01:33:44.364Z,0.30
2023-02-14T01:36:17.413Z,0.30
2023-02-14T01:38:45.441Z,0.33
2023-02-14T01:41:13.527Z,0.37
2023-02-14T01:43:51.534Z,0.34
2023-02-14T01:46:19.957Z,0.35
2023-02-14T01:48:48.854Z,0.29
2023-02-14T01:51:18.942Z,0.31
2023-02-14T01:53:47.534Z,0.32
2023-02-14T01:56:19.099Z,0.25
2023-02-14T01:58:51.270Z,0.22
2023-02-14T02:01:19.726Z,0.23
2023-02-14T02:03:53.807Z,0.22
2023-02-14T02:06:31.090Z,0.32
2023-02-14T02:09:05.062Z,0.34
2023-02-14T02:11:33.466Z,0.37
2023-02-14T02:14:01.555Z,0.44
2023-02-14T02:16:59.273Z,0.50
2023-02-14T02:19:27.209Z,0.51
2023-02-14T02:22:07.266Z,0.53
2023-02-14T02:24:35.426Z,0.56
2023-02-14T02:27:22.173Z,0.62
2023-02-14T02:30:02.436Z,0.68
2023-02-14T02:32:49.159Z,0.71
2023-02-14T02:35:29.467Z,0.73
2023-02-14T02:38:09.709Z,0.73
2023-02-14T02:40:37.774Z,0.74
2023-02-14T02:43:05.941Z,0.70
2023-02-14T02:46:11.959Z,0.68
2023-02-14T02:48:48.082Z,0.70
2023-02-14T02:51:48.968Z,0.73
2023-02-14T02:54:23.682Z,0.74
2023-02-14T02:56:56.087Z,0.81
2023-02-14T02:59:30.623Z,0.86
2023-02-14T03:02:04.822Z,0.90
2023-02-14T03:04:52.684Z,0.93
2023-02-14T03:07:36.750Z,0.97
2023-02-14T03:10:15.066Z,0.99
2023-02-14T03:13:01.946Z,1.00
2023-02-14T03:15:39.277Z,1.01
2023-02-14T03:18:35.581Z,1.00
2023-02-14T03:21:14.827Z,0.98
2023-02-14T03:23:53.981Z,0.96
2023-02-14T03:26:33.953Z,0.94
2023-02-14T03:29:20.840Z,0.94
2023-02-14T03:32:15.807Z,0.91
2023-02-14T03:34:50.177Z,0.88
2023-02-14T03:37:25.967Z,0.87
2023-02-14T03:40:05.685Z,0.87
2023-02-14T03:42:56.907Z,0.90
2023-02-14T03:45:29.324Z,0.90
2023-02-14T03:48:00.755Z,0.93
2023-02-14T03:50:30.611Z,0.93
2023-02-14T03:52:59.589Z,0.91
2023-02-14T03:55:32.766Z,0.91
2023-02-14T03:58:06.300Z,0.91
2023-02-14T04:00:36.867Z,0.92
2023-02-14T04:03:11.978Z,0.89
2023-02-14T04:05:43.853Z,0.90
2023-02-14T04:08:12.409Z,0.91
2023-02-14T04:10:42.037Z,0.92
2023-02-14T04:13:10.123Z,0.87
2023-02-14T04:15:38.165Z,0.90
2023-02-14T04:18:24.891Z,0.93
2023-02-14T04:20:52.974Z,0.94
2023-02-14T04:23:21.039Z,0.97
2023-02-14T04:25:49.044Z,0.99
2023-02-14T04:28:17.205Z,1.00
2023-02-14T04:30:45.279Z,1.04
2023-02-14T04:33:13.364Z,1.06
2023-02-14T04:35:41.455Z,1.12
2023-02-14T04:38:09.417Z,1.13
2023-02-14T04:40:37.394Z,1.14
2023-02-14T04:43:07.548Z,1.13
2023-02-14T04:45:35.497Z,1.09
2023-02-14T04:48:03.477Z,1.08
2023-02-14T04:50:31.435Z,1.09
2023-02-14T04:52:59.391Z,1.09
2023-02-14T04:55:27.505Z,1.06
2023-02-14T04:57:55.477Z,1.05
2023-02-14T05:00:24.303Z,1.00
2023-02-14T05:02:52.265Z,1.03
2023-02-14T05:05:20.324Z,1.06
2023-02-14T05:07:48.197Z,1.09
2023-02-14T05:10:16.214Z,1.09
2023-02-14T05:12:44.315Z,1.08
2023-02-14T05:15:12.327Z,1.08
2023-02-14T05:17:40.302Z,1.09
2023-02-14T05:20:09.111Z,1.09
2023-02-14T05:22:37.026Z,1.13
2023-02-14T05:25:05.249Z,1.14
2023-02-14T05:27:33.167Z,1.12
2023-02-14T05:30:01.171Z,1.13
2023-02-14T05:32:29.379Z,1.14
2023-02-14T05:34:58.416Z,1.17
2023-02-14T05:37:27.650Z,1.17
2023-02-14T05:39:55.676Z,1.16
2023-02-14T05:42:23.733Z,1.17
2023-02-14T05:44:51.746Z,1.17
2023-02-14T05:47:19.786Z,1.19
2023-02-14T05:49:47.683Z,1.19
2023-02-14T05:52:15.815Z,1.19
2023-02-14T05:54:44.016Z,1.23
2023-02-14T05:57:12.004Z,1.25
2023-02-14T05:59:39.954Z,1.25
2023-02-14T06:02:07.906Z,1.26
2023-02-14T06:04:36.297Z,1.26
2023-02-14T06:07:04.318Z,1.25
2023-02-14T06:09:32.248Z,1.25
2023-02-14T06:12:00.186Z,1.24
2023-02-14T06:14:28.432Z,1.25
2023-02-14T06:16:56.514Z,1.27
2023-02-14T06:19:24.757Z,1.28
2023-02-14T06:21:52.844Z,1.28
2023-02-14T06:24:20.819Z,1.26
2023-02-14T06:26:48.865Z,1.30
2023-02-14T06:29:17.898Z,1.32
2023-02-14T06:31:46.203Z,1.36
2023-02-14T06:34:16.135Z,1.36
2023-02-14T06:36:44.747Z,1.36
2023-02-14T06:39:12.912Z,1.36
2023-02-14T06:41:40.884Z,1.36
2023-02-14T06:44:10.579Z,1.40
2023-02-14T06:46:38.564Z,1.41
2023-02-14T06:49:06.741Z,1.41
2023-02-14T06:51:34.822Z,1.39
2023-02-14T06:54:02.907Z,1.40
2023-02-14T06:56:30.951Z,1.43
2023-02-14T06:58:59.027Z,1.44
2023-02-14T07:01:26.976Z,1.44
2023-02-14T07:03:55.075Z,1.44
2023-02-14T07:06:23.144Z,1.44
2023-02-14T07:08:51.323Z,1.43
2023-02-14T07:11:19.395Z,1.45
2023-02-14T07:13:49.401Z,1.47
2023-02-14T07:16:18.092Z,1.48
2023-02-14T07:18:46.559Z,1.48
2023-02-14T07:21:14.649Z,1.48
2023-02-14T07:23:46.509Z,1.47
2023-02-14T07:26:18.277Z,1.47
2023-02-14T07:28:51.783Z,1.45
2023-02-14T07:31:23.791Z,1.43
2023-02-14T07:33:52.872Z,1.45
2023-02-14T07:36:20.971Z,1.46
2023-02-14T07:38:49.140Z,1.47
2023-02-14T07:41:17.350Z,1.46
2023-02-14T07:43:45.323Z,1.46
2023-02-14T07:46:13.886Z,1.46
2023-02-14T07:48:42.380Z,1.46
2023-02-14T07:51:10.658Z,1.50
2023-02-14T07:53:38.577Z,1.53
2023-02-14T07:56:06.598Z,1.55
2023-02-14T07:58:34.548Z,1.59
2023-02-14T08:01:02.647Z,1.61
2023-02-14T08:03:30.919Z,1.62
2023-02-14T08:05:58.981Z,1.64
2023-02-14T08:08:28.182Z,1.69
2023-02-14T08:10:56.129Z,1.74
2023-02-14T08:13:24.748Z,1.78
2023-02-14T08:16:04.739Z,1.81
2023-02-14T08:18:42.482Z,1.82
2023-02-14T08:21:11.315Z,1.85
2023-02-14T08:23:39.353Z,1.89
2023-02-14T08:26:07.750Z,1.95
2023-02-14T08:28:35.970Z,1.97
2023-02-14T08:31:04.644Z,2.03
2023-02-14T08:33:32.894Z,2.03
2023-02-14T08:36:00.942Z,2.03
2023-02-14T08:38:29.649Z,2.03
2023-02-14T08:41:03.817Z,2.06
2023-02-14T08:43:34.389Z,2.08
2023-02-14T08:46:03.320Z,2.08
2023-02-14T08:48:31.673Z,2.08
2023-02-14T08:51:04.325Z,2.06
2023-02-14T08:53:32.289Z,2.08
2023-02-14T08:56:04.483Z,2.12
2023-02-14T08:58:33.075Z,2.15
2023-02-14T09:01:01.368Z,2.17
2023-02-14T09:03:29.760Z,2.17
2023-02-14T09:06:02.618Z,2.23
2023-02-14T09:08:31.799Z,2.27
2023-02-14T09:11:00.425Z,2.29
2023-02-14T09:13:31.092Z,2.31
2023-02-14T09:15:59.158Z,2.32
2023-02-14T09:18:27.339Z,2.34
2023-02-14T09:20:55.578Z,2.33
2023-02-14T09:23:24.163Z,2.32
2023-02-14T09:25:52.641Z,2.34
2023-02-14T09:28:20.581Z,2.37
2023-02-14T09:30:48.540Z,2.42
2023-02-14T09:33:16.722Z,2.41
2023-02-14T09:35:45.227Z,2.45
2023-02-14T09:38:13.265Z,2.48
2023-02-14T09:40:41.943Z,2.47
2023-02-14T09:43:12.792Z,2.53
2023-02-14T09:45:41.430Z,2.54
2023-02-14T09:48:19.376Z,2.54
2023-02-14T09:50:50.016Z,2.59
2023-02-14T09:53:24.648Z,2.63
2023-02-14T09:55:59.040Z,2.68
2023-02-14T09:58:33.711Z,2.71
2023-02-14T10:01:02.260Z,2.75
2023-02-14T10:03:36.413Z,2.76
2023-02-14T10:06:19.366Z,2.87
2023-02-14T10:08:55.299Z,2.94
2023-02-14T10:11:24.983Z,2.96
2023-02-14T10:13:57.059Z,3.02
2023-02-14T10:16:27.110Z,3.08
2023-02-14T10:19:02.922Z,3.14
2023-02-14T10:21:47.109Z,3.23
2023-02-14T10:24:22.084Z,3.34
2023-02-14T10:26:50.775Z,3.45
2023-02-14T10:29:20.914Z,3.53
2023-02-14T10:31:55.987Z,3.67
2023-02-14T10:34:33.146Z,3.74
2023-02-14T10:37:04.485Z,3.82
2023-02-14T10:39:41.748Z,3.91
2023-02-14T10:42:18.124Z,3.90
2023-02-14T10:44:52.270Z,3.92
2023-02-14T10:47:23.474Z,4.00
2023-02-14T10:50:11.417Z,4.05
2023-02-14T10:52:45.468Z,4.18
2023-02-14T10:55:31.469Z,4.26
2023-02-14T10:58:03.178Z,4.26
2023-02-14T11:00:33.931Z,4.27
2023-02-14T11:03:05.659Z,4.33
2023-02-14T11:05:47.112Z,4.25
2023-02-14T11:08:18.717Z,4.31
2023-02-14T11:10:46.880Z,4.22
2023-02-14T11:13:33.560Z,4.18
2023-02-14T11:16:06.587Z,4.19
2023-02-14T11:18:39.813Z,4.17
2023-02-14T11:21:17.998Z,4.13
2023-02-14T11:23:47.618Z,4.21
2023-02-14T11:26:25.066Z,4.23
2023-02-14T11:28:58.077Z,4.17
2023-02-14T11:31:33.619Z,4.09
2023-02-14T11:34:05.022Z,4.08
2023-02-14T11:36:40.747Z,4.08
2023-02-14T11:39:13.453Z,4.07
2023-02-14T11:41:47.481Z,4.14
2023-02-14T11:44:22.433Z,4.16
2023-02-14T11:46:53.430Z,4.20
2023-02-14T11:49:29.974Z,4.26
2023-02-14T11:51:59.258Z,4.34
2023-02-14T11:54:29.705Z,4.34
2023-02-14T11:57:20.967Z,4.32
2023-02-14T11:59:52.067Z,4.31
2023-02-14T12:02:20.088Z,4.29
2023-02-14T12:04:53.635Z,4.25
2023-02-14T12:07:48.752Z,4.25
2023-02-14T12:10:20.066Z,4.27
2023-02-14T12:12:52.808Z,4.32
2023-02-14T12:15:24.274Z,4.39
2023-02-14T12:18:18.848Z,4.51
2023-02-14T12:20:46.985Z,4.62
2023-02-14T12:23:35.336Z,4.74
2023-02-14T12:26:09.590Z,4.75
2023-02-14T12:28:42.950Z,4.77
2023-02-14T12:31:11.776Z,4.82
2023-02-14T12:33:40.865Z,4.86
2023-02-14T12:36:15.528Z,5.00
2023-02-14T12:38:53.930Z,5.17
2023-02-14T12:41:33.133Z,5.28
2023-02-14T12:44:04.045Z,5.40
2023-02-14T12:46:32.150Z,5.47
2023-02-14T12:49:12.224Z,5.53
2023-02-14T12:51:47.282Z,5.63
2023-02-14T12:54:34.132Z,5.65
2023-02-14T12:57:21.167Z,5.67
2023-02-14T12:59:52.073Z,5.72
2023-02-14T13:02:32.481Z,5.74
2023-02-14T13:05:19.462Z,5.72
2023-02-14T13:07:59.957Z,5.64
2023-02-14T13:10:30.137Z,5.63
2023-02-14T13:13:07.918Z,5.68
2023-02-14T13:15:51.185Z,5.73
2023-02-14T13:18:32.327Z,5.74
2023-02-14T13:21:02.330Z,5.74
2023-02-14T13:23:47.442Z,5.76
2023-02-14T13:26:42.097Z,5.65
2023-02-14T13:29:11.651Z,5.52
2023-02-14T13:31:40.673Z,5.30
2023-02-14T13:34:20.312Z,5.07
2023-02-14T13:36:49.389Z,4.85
2023-02-14T13:39:24.350Z,4.65
2023-02-14T13:41:52.284Z,4.44
2023-02-14T13:44:39.013Z,4.25
2023-02-14T13:47:07.525Z,4.03
2023-02-14T13:49:48.564Z,3.91
2023-02-14T13:52:36.601Z,3.80
2023-02-14T13:55:07.634Z,3.66
2023-02-14T13:57:36.958Z,3.55
2023-02-14T14:00:20.064Z,3.46
2023-02-14T14:02:48.157Z,3.41
2023-02-14T14:05:43.791Z,3.37
2023-02-14T14:08:20.674Z,3.31
2023-02-14T14:10:51.498Z,3.25
2023-02-14T14:13:38.410Z,3.22
2023-02-14T14:16:21.510Z,3.21
2023-02-14T14:18:51.866Z,3.23
2023-02-14T14:21:27.182Z,3.22
2023-02-14T14:24:14.031Z,3.23
2023-02-14T14:26:44.837Z,3.24
2023-02-14T14:29:18.272Z,3.23
2023-02-14T14:31:47.530Z,3.23
2023-02-14T14:34:17.824Z,3.21
2023-02-14T14:36:46.032Z,3.20
2023-02-14T14:39:25.415Z,3.22
2023-02-14T14:41:53.543Z,3.25
2023-02-14T14:44:21.570Z,3.25
2023-02-14T14:46:49.536Z,3.23
2023-02-14T14:49:17.611Z,3.19
2023-02-14T14:51:45.808Z,3.17
2023-02-14T14:54:15.814Z,3.16
2023-02-14T14:56:48.734Z,3.16
2023-02-14T14:59:17.300Z,3.12
2023-02-14T15:01:46.206Z,3.10
2023-02-14T15:04:14.301Z,3.03
2023-02-14T15:06:43.246Z,3.00
2023-02-14T15:09:13.299Z,2.98
2023-02-14T15:12:00.479Z,2.96
2023-02-14T15:14:29.697Z,2.91
2023-02-14T15:17:02.183Z,2.86
2023-02-14T15:19:37.308Z,2.85
2023-02-14T15:22:07.725Z,2.80
2023-02-14T15:24:38.293Z,2.74
2023-02-14T15:27:14.755Z,2.73
2023-02-14T15:29:53.029Z,2.69
2023-02-14T15:32:21.657Z,2.66
2023-02-14T15:34:50.149Z,2.61
2023-02-14T15:37:18.633Z,2.60
2023-02-14T15:39:48.653Z,2.62
2023-02-14T15:42:22.793Z,2.62
2023-02-14T15:44:50.983Z,2.60
2023-02-14T15:47:20.460Z,2.60
2023-02-14T15:49:48.537Z,2.59
2023-02-14T15:52:16.502Z,2.56
2023-02-14T15:54:46.681Z,2.53
2023-02-14T15:57:26.317Z,2.48
2023-02-14T15:59:55.279Z,2.44
2023-02-14T16:02:41.309Z,2.40
2023-02-14T16:05:17.906Z,2.37
2023-02-14T16:08:05.826Z,2.34
2023-02-14T16:10:35.497Z,2.29
2023-02-14T16:13:12.409Z,2.27
2023-02-14T16:15:55.637Z,2.27
2023-02-14T16:18:40.415Z,2.23
2023-02-14T16:21:13.734Z,2.26
2023-02-14T16:23:42.390Z,2.28
2023-02-14T16:26:10.565Z,2.27
2023-02-14T16:28:38.872Z,2.28
2023-02-14T16:31:11.620Z,2.27
2023-02-14T16:33:41.063Z,2.28
2023-02-14T16:36:24.479Z,2.26
2023-02-14T16:38:53.192Z,2.24
2023-02-14T16:41:26.247Z,2.23
2023-02-14T16:43:55.061Z,2.22
2023-02-14T16:46:25.535Z,2.22
2023-02-14T16:48:53.773Z,2.24
2023-02-14T16:51:23.304Z,2.24
2023-02-14T16:53:51.765Z,2.27
2023-02-14T16:56:42.572Z,2.27
2023-02-14T16:59:10.966Z,2.27
2023-02-14T17:01:38.898Z,2.28
2023-02-14T17:04:07.030Z,2.27
2023-02-14T17:06:38.365Z,2.26
2023-02-14T17:09:07.364Z,2.20
2023-02-14T17:11:38.614Z,2.24
2023-02-14T17:14:06.996Z,2.25
2023-02-14T17:16:34.974Z,2.25
2023-02-14T17:19:03.369Z,2.23
2023-02-14T17:21:31.858Z,2.20
2023-02-14T17:23:59.807Z,2.18
2023-02-14T17:26:27.800Z,2.20
2023-02-14T17:28:55.870Z,2.19
2023-02-14T17:31:24.123Z,2.18
2023-02-14T17:33:52.153Z,2.18
2023-02-14T17:36:20.323Z,2.20
2023-02-14T17:38:48.295Z,2.22
2023-02-14T17:41:18.846Z,2.13
2023-02-14T17:43:46.737Z,2.17
2023-02-14T17:46:16.468Z,2.16
2023-02-14T17:48:45.636Z,2.13
2023-02-14T17:51:14.667Z,2.16
2023-02-14T17:53:43.170Z,2.15
2023-02-14T17:56:12.730Z,2.19
2023-02-14T17:58:41.004Z,2.20
2023-02-14T18:01:10.874Z,2.20
2023-02-14T18:03:39.215Z,2.19
2023-02-14T18:06:08.323Z,2.19
2023-02-14T18:08:39.666Z,2.19
2023-02-14T18:11:08.664Z,2.20
2023-02-14T18:13:37.162Z,2.21
2023-02-14T18:16:06.802Z,2.19
2023-02-14T18:18:34.748Z,2.17
2023-02-14T18:21:03.926Z,2.17
2023-02-14T18:23:32.850Z,2.21
2023-02-14T18:26:03.722Z,2.16
2023-02-14T18:28:32.490Z,2.18
2023-02-14T18:31:05.238Z,2.16
2023-02-14T18:33:33.665Z,2.15
2023-02-14T18:36:07.224Z,2.13
2023-02-14T18:38:35.650Z,2.12
2023-02-14T18:41:07.525Z,2.15
2023-02-14T18:43:36.204Z,2.19
2023-02-14T18:46:05.272Z,2.20
2023-02-14T18:48:34.058Z,2.26
2023-02-14T18:51:25.378Z,2.30
2023-02-14T18:53:55.076Z,2.34
2023-02-14T18:56:30.280Z,2.37
2023-02-14T18:58:59.712Z,2.40
2023-02-14T19:01:32.273Z,2.43
2023-02-14T19:04:00.966Z,2.45
2023-02-14T19:06:29.997Z,2.47
2023-02-14T19:08:58.123Z,2.47
2023-02-14T19:11:28.373Z,2.46
2023-02-14T19:13:57.681Z,2.49
2023-02-14T19:16:27.198Z,2.48
2023-02-14T19:18:55.581Z,2.50
2023-02-14T19:21:25.278Z,2.50
2023-02-14T19:23:54.410Z,2.51
2023-02-14T19:26:23.835Z,2.52
2023-02-14T19:28:55.306Z,2.52
2023-02-14T19:31:23.565Z,2.53
2023-02-14T19:33:51.614Z,2.53
2023-02-14T19:36:20.735Z,2.54
2023-02-14T19:38:50.240Z,2.53
2023-02-14T19:41:27.851Z,2.53
2023-02-14T19:43:57.078Z,2.53
2023-02-14T19:46:25.730Z,2.49
2023-02-14T19:48:53.725Z,2.51
2023-02-14T19:51:23.340Z,2.52
2023-02-14T19:53:51.830Z,2.52
2023-02-14T19:56:21.518Z,2.47
2023-02-14T19:58:50.503Z,2.51
2023-02-14T20:01:24.608Z,2.52
2023-02-14T20:03:53.378Z,2.50
2023-02-14T20:06:22.062Z,2.49
2023-02-14T20:08:50.272Z,2.48
2023-02-14T20:11:24.252Z,2.49
2023-02-14T20:13:54.196Z,2.49
2023-02-14T20:16:23.227Z,2.49
2023-02-14T20:18:51.274Z,2.51
2023-02-14T20:21:24.164Z,2.49
2023-02-14T20:23:52.231Z,2.51
2023-02-14T20:26:20.504Z,2.47
2023-02-14T20:28:49.402Z,2.48
2023-02-14T20:31:19.685Z,2.46
2023-02-14T20:33:50.497Z,2.44
2023-02-14T20:36:19.907Z,2.43
2023-02-14T20:38:47.872Z,2.38
2023-02-14T20:41:18.712Z,2.44
2023-02-14T20:43:46.782Z,2.46
2023-02-14T20:46:14.801Z,2.42
2023-02-14T20:48:42.911Z,2.43
2023-02-14T20:51:18.233Z,2.42
2023-02-14T20:53:46.650Z,2.44
2023-02-14T20:56:15.275Z,2.43
2023-02-14T20:58:43.432Z,2.41
2023-02-14T21:01:15.451Z,2.44
2023-02-14T21:03:46.786Z,2.44
2023-02-14T21:06:15.446Z,2.43
2023-02-14T21:08:43.797Z,2.39
2023-02-14T21:11:13.381Z,2.36
2023-02-14T21:13:41.554Z,2.42
2023-02-14T21:16:17.430Z,2.44
2023-02-14T21:18:48.725Z,2.45
2023-02-14T21:21:30.317Z,2.49
2023-02-14T21:23:58.861Z,2.49
2023-02-14T21:26:27.328Z,2.49
2023-02-14T21:28:55.220Z,2.48
2023-02-14T21:31:25.747Z,2.48
2023-02-14T21:33:58.225Z,2.48
2023-02-14T21:36:27.786Z,2.47
2023-02-14T21:38:58.317Z,2.45
2023-02-14T21:41:28.020Z,2.45
2023-02-14T21:43:56.636Z,2.37
2023-02-14T21:46:27.622Z,2.36
2023-02-14T21:49:14.662Z,2.36
2023-02-14T21:51:42.660Z,2.39
2023-02-14T21:54:11.203Z,2.39
2023-02-14T21:56:39.470Z,2.41
2023-02-14T21:59:07.733Z,2.42
2023-02-14T22:01:36.989Z,2.44
2023-02-14T22:04:07.793Z,2.48
2023-02-14T22:06:37.415Z,2.47
2023-02-14T22:09:05.891Z,2.45
2023-02-14T22:11:34.560Z,2.48
2023-02-14T22:14:02.807Z,2.48
2023-02-14T22:16:30.976Z,2.47
2023-02-14T22:18:59.270Z,2.45
2023-02-14T22:21:27.928Z,2.37
2023-02-14T22:23:55.871Z,2.37
2023-02-14T22:26:25.910Z,2.33
2023-02-14T22:28:57.011Z,2.31
2023-02-14T22:31:26.614Z,2.28
2023-02-14T22:33:55.150Z,2.31
2023-02-14T22:36:23.113Z,2.32
2023-02-14T22:38:51.099Z,2.32
2023-02-14T22:41:19.945Z,2.31
2023-02-14T22:43:48.211Z,2.32
2023-02-14T22:46:23.772Z,2.29
2023-02-14T22:48:52.348Z,2.26
2023-02-14T22:51:27.648Z,2.23
2023-02-14T22:53:57.106Z,2.24
2023-02-14T22:56:29.549Z,2.24
2023-02-14T22:59:03.874Z,2.24
2023-02-14T23:01:32.655Z,2.23
2023-02-14T23:04:03.604Z,2.22
2023-02-14T23:06:33.028Z,2.19
2023-02-14T23:09:02.447Z,2.17
2023-02-14T23:11:31.583Z,2.15
2023-02-14T23:14:18.682Z,2.13
2023-02-14T23:17:05.482Z,2.07
2023-02-14T23:19:52.917Z,2.08
2023-02-14T23:22:20.874Z,2.08
2023-02-14T23:24:49.486Z,2.09
2023-02-14T23:27:18.892Z,2.07
2023-02-14T23:29:46.860Z,2.05
2023-02-14T23:32:15.190Z,2.05
2023-02-14T23:34:43.753Z,2.03
2023-02-14T23:37:12.569Z,1.97
2023-02-14T23:39:41.272Z,1.89
2023-02-14T23:42:11.108Z,1.84
2023-02-14T23:44:40.069Z,1.77
2023-02-14T23:47:10.219Z,1.71
2023-02-14T23:49:39.362Z,1.65
2023-02-14T23:52:08.493Z,1.59
2023-02-14T23:54:36.544Z,1.55
2023-02-14T23:57:05.069Z,1.49
2023-02-14T23:59:33.151Z,1.43
